sensor_id;sensor_type;location;lat;lon;timestamp;pressure;altitude;pressure_sealevel;temperature;humidity
47985;BME280;33753;52.912;-7.342;2023-01-26T00:00:00;102465.34;;;0.69;100.00
47985;BME280;33753;52.912;-7.342;2023-01-26T00:02:30;102477.50;;;0.76;100.00
47985;BME280;33753;52.912;-7.342;2023-01-26T00:04:59;102479.91;;;0.82;100.00
47985;BME280;33753;52.912;-7.342;2023-01-26T00:07:28;102477.84;;;0.91;100.00
47985;BME280;33753;52.912;-7.342;2023-01-26T00:09:56;102478.47;;;0.97;100.00
47985;BME280;33753;52.912;-7.342;2023-01-26T00:12:24;102478.16;;;1.05;100.00
47985;BME280;33753;52.912;-7.342;2023-01-26T00:14:52;102478.88;;;1.10;100.00
47985;BME280;33753;52.912;-7.342;2023-01-26T00:17:22;102479.53;;;1.15;100.00
47985;BME280;33753;52.912;-7.342;2023-01-26T00:19:54;102487.25;;;1.23;100.00
47985;BME280;33753;52.912;-7.342;2023-01-26T00:22:22;102484.47;;;1.26;100.00
47985;BME280;33753;52.912;-7.342;2023-01-26T00:24:51;102472.63;;;1.33;100.00
47985;BME280;33753;52.912;-7.342;2023-01-26T00:27:19;102475.16;;;1.36;100.00
47985;BME280;33753;52.912;-7.342;2023-01-26T00:29:47;102465.19;;;1.42;100.00
47985;BME280;33753;52.912;-7.342;2023-01-26T00:32:16;102455.25;;;1.45;100.00
47985;BME280;33753;52.912;-7.342;2023-01-26T00:34:45;102458.66;;;1.49;100.00
47985;BME280;33753;52.912;-7.342;2023-01-26T00:37:13;102454.06;;;1.52;100.00
47985;BME280;33753;52.912;-7.342;2023-01-26T00:39:42;102461.78;;;1.59;100.00
47985;BME280;33753;52.912;-7.342;2023-01-26T00:42:10;102465.91;;;1.67;100.00
47985;BME280;33753;52.912;-7.342;2023-01-26T00:44:40;102464.78;;;1.73;100.00
47985;BME280;33753;52.912;-7.342;2023-01-26T00:47:09;102469.84;;;1.79;100.00
47985;BME280;33753;52.912;-7.342;2023-01-26T00:49:38;102468.72;;;1.85;100.00
47985;BME280;33753;52.912;-7.342;2023-01-26T00:52:07;102464.16;;;1.87;100.00
47985;BME280;33753;52.912;-7.342;2023-01-26T00:54:35;102458.66;;;1.92;100.00
47985;BME280;33753;52.912;-7.342;2023-01-26T00:57:03;102459.38;;;1.95;100.00
47985;BME280;33753;52.912;-7.342;2023-01-26T00:59:32;102449.47;;;1.99;100.00
47985;BME280;33753;52.912;-7.342;2023-01-26T01:02:00;102458.13;;;2.04;100.00
47985;BME280;33753;52.912;-7.342;2023-01-26T01:04:28;102468.53;;;2.10;100.00
47985;BME280;33753;52.912;-7.342;2023-01-26T01:06:59;102473.59;;;2.16;100.00
47985;BME280;33753;52.912;-7.342;2023-01-26T01:09:29;102468.81;;;2.24;100.00
47985;BME280;33753;52.912;-7.342;2023-01-26T01:11:57;102465.72;;;2.34;100.00
47985;BME280;33753;52.912;-7.342;2023-01-26T01:14:26;102459.09;;;2.42;100.00
47985;BME280;33753;52.912;-7.342;2023-01-26T01:16:54;102461.44;;;2.50;100.00
47985;BME280;33753;52.912;-7.342;2023-01-26T01:19:22;102458.25;;;2.61;100.00
47985;BME280;33753;52.912;-7.342;2023-01-26T01:21:50;102460.59;;;2.69;100.00
47985;BME280;33753;52.912;-7.342;2023-01-26T01:24:18;102468.16;;;2.78;100.00
47985;BME280;33753;52.912;-7.342;2023-01-26T01:26:48;102477.47;;;2.88;100.00
47985;BME280;33753;52.912;-7.342;2023-01-26T01:29:16;102470.91;;;2.96;100.00
47985;BME280;33753;52.912;-7.342;2023-01-26T01:31:44;102464.31;;;3.03;100.00
47985;BME280;33753;52.912;-7.342;2023-01-26T01:34:12;102454.28;;;3.08;100.00
47985;BME280;33753;52.912;-7.342;2023-01-26T01:36:41;102450.47;;;3.14;100.00
47985;BME280;33753;52.912;-7.342;2023-01-26T01:39:09;102456.50;;;3.17;100.00
47985;BME280;33753;52.912;-7.342;2023-01-26T01:41:37;102459.69;;;3.25;100.00
47985;BME280;33753;52.912;-7.342;2023-01-26T01:44:13;102458.44;;;3.33;100.00
47985;BME280;33753;52.912;-7.342;2023-01-26T01:46:45;102447.38;;;3.40;100.00
47985;BME280;33753;52.912;-7.342;2023-01-26T01:49:16;102453.44;;;3.44;100.00
47985;BME280;33753;52.912;-7.342;2023-01-26T01:51:45;102455.09;;;3.46;100.00
47985;BME280;33753;52.912;-7.342;2023-01-26T01:54:17;102444.00;;;3.54;100.00
47985;BME280;33753;52.912;-7.342;2023-01-26T01:56:47;102430.50;;;3.57;100.00
47985;BME280;33753;52.912;-7.342;2023-01-26T01:59:18;102433.78;;;3.62;100.00
47985;BME280;33753;52.912;-7.342;2023-01-26T02:01:48;102413.03;;;3.68;100.00
47985;BME280;33753;52.912;-7.342;2023-01-26T02:04:17;102426.88;;;3.76;100.00
47985;BME280;33753;52.912;-7.342;2023-01-26T02:06:47;102425.75;;;3.80;100.00
47985;BME280;33753;52.912;-7.342;2023-01-26T02:09:16;102427.34;;;3.84;100.00
47985;BME280;33753;52.912;-7.342;2023-01-26T02:11:59;102424.38;;;3.90;100.00
47985;BME280;33753;52.912;-7.342;2023-01-26T02:14:30;102423.25;;;3.94;100.00
47985;BME280;33753;52.912;-7.342;2023-01-26T02:17:00;102424.03;;;3.96;100.00
47985;BME280;33753;52.912;-7.342;2023-01-26T02:19:31;102414.72;;;4.04;100.00
47985;BME280;33753;52.912;-7.342;2023-01-26T02:22:05;102406.53;;;4.07;100.00
47985;BME280;33753;52.912;-7.342;2023-01-26T02:24:35;102401.19;;;4.07;100.00
47985;BME280;33753;52.912;-7.342;2023-01-26T02:27:07;102396.63;;;4.09;100.00
47985;BME280;33753;52.912;-7.342;2023-01-26T02:29:35;102394.53;;;4.14;100.00
47985;BME280;33753;52.912;-7.342;2023-01-26T02:32:03;102392.66;;;4.16;100.00
47985;BME280;33753;52.912;-7.342;2023-01-26T02:34:31;102388.88;;;4.20;100.00
47985;BME280;33753;52.912;-7.342;2023-01-26T02:37:00;102377.19;;;4.21;100.00
47985;BME280;33753;52.912;-7.342;2023-01-26T02:39:37;102390.38;;;4.26;100.00
47985;BME280;33753;52.912;-7.342;2023-01-26T02:42:08;102386.63;;;4.28;100.00
47985;BME280;33753;52.912;-7.342;2023-01-26T02:44:54;102382.06;;;4.30;100.00
47985;BME280;33753;52.912;-7.342;2023-01-26T02:47:22;102372.13;;;4.32;100.00
47985;BME280;33753;52.912;-7.342;2023-01-26T02:49:51;102369.28;;;4.36;100.00
47985;BME280;33753;52.912;-7.342;2023-01-26T02:52:20;102387.88;;;4.39;100.00
47985;BME280;33753;52.912;-7.342;2023-01-26T02:54:59;102390.97;;;4.31;100.00
47985;BME280;33753;52.912;-7.342;2023-01-26T02:57:46;102398.44;;;4.42;100.00
47985;BME280;33753;52.912;-7.342;2023-01-26T03:00:15;102387.63;;;4.43;100.00
47985;BME280;33753;52.912;-7.342;2023-01-26T03:02:46;102389.94;;;4.33;100.00
47985;BME280;33753;52.912;-7.342;2023-01-26T03:05:16;102375.25;;;4.41;100.00
47985;BME280;33753;52.912;-7.342;2023-01-26T03:07:44;102374.53;;;4.37;100.00
47985;BME280;33753;52.912;-7.342;2023-01-26T03:10:13;102379.59;;;4.43;100.00
47985;BME280;33753;52.912;-7.342;2023-01-26T03:12:41;102377.19;;;4.39;100.00
47985;BME280;33753;52.912;-7.342;2023-01-26T03:15:11;102384.25;;;4.40;100.00
47985;BME280;33753;52.912;-7.342;2023-01-26T03:18:00;102390.22;;;4.45;100.00
47985;BME280;33753;52.912;-7.342;2023-01-26T03:21:03;102383.28;;;4.41;100.00
47985;BME280;33753;52.912;-7.342;2023-01-26T03:23:49;102390.41;;;4.42;100.00
47985;BME280;33753;52.912;-7.342;2023-01-26T03:26:35;102390.06;;;4.48;100.00
47985;BME280;33753;52.912;-7.342;2023-01-26T03:29:22;102397.91;;;4.51;100.00
47985;BME280;33753;52.912;-7.342;2023-01-26T03:31:56;102403.44;;;4.48;100.00
47985;BME280;33753;52.912;-7.342;2023-01-26T03:34:26;102403.28;;;4.51;100.00
47985;BME280;33753;52.912;-7.342;2023-01-26T03:36:56;102391.44;;;4.55;100.00
47985;BME280;33753;52.912;-7.342;2023-01-26T03:39:29;102393.44;;;4.52;100.00
47985;BME280;33753;52.912;-7.342;2023-01-26T03:42:16;102401.47;;;4.52;100.00
47985;BME280;33753;52.912;-7.342;2023-01-26T03:45:01;102406.75;;;4.53;100.00
47985;BME280;33753;52.912;-7.342;2023-01-26T03:47:49;102396.81;;;4.55;100.00
47985;BME280;33753;52.912;-7.342;2023-01-26T03:50:35;102400.41;;;4.54;100.00
47985;BME280;33753;52.912;-7.342;2023-01-26T03:53:21;102401.41;;;4.53;100.00
47985;BME280;33753;52.912;-7.342;2023-01-26T03:56:09;102402.34;;;4.52;100.00
47985;BME280;33753;52.912;-7.342;2023-01-26T03:58:51;102400.34;;;4.56;100.00
47985;BME280;33753;52.912;-7.342;2023-01-26T04:01:22;102389.38;;;4.60;100.00
47985;BME280;33753;52.912;-7.342;2023-01-26T04:03:56;102386.00;;;4.57;100.00
47985;BME280;33753;52.912;-7.342;2023-01-26T04:06:45;102376.13;;;4.57;100.00
47985;BME280;33753;52.912;-7.342;2023-01-26T04:09:32;102388.59;;;4.58;100.00
47985;BME280;33753;52.912;-7.342;2023-01-26T04:12:00;102387.81;;;4.56;100.00
47985;BME280;33753;52.912;-7.342;2023-01-26T04:14:28;102386.69;;;4.60;100.00
47985;BME280;33753;52.912;-7.342;2023-01-26T04:17:20;102395.69;;;4.59;100.00
47985;BME280;33753;52.912;-7.342;2023-01-26T04:20:09;102392.38;;;4.54;100.00
47985;BME280;33753;52.912;-7.342;2023-01-26T04:22:55;102401.66;;;4.64;100.00
47985;BME280;33753;52.912;-7.342;2023-01-26T04:25:23;102415.06;;;4.64;100.00
47985;BME280;33753;52.912;-7.342;2023-01-26T04:27:51;102417.97;;;4.60;100.00
47985;BME280;33753;52.912;-7.342;2023-01-26T04:30:20;102402.63;;;4.63;100.00
47985;BME280;33753;52.912;-7.342;2023-01-26T04:32:49;102408.16;;;4.60;100.00
47985;BME280;33753;52.912;-7.342;2023-01-26T04:35:19;102421.28;;;4.65;100.00
47985;BME280;33753;52.912;-7.342;2023-01-26T04:37:49;102420.50;;;4.63;100.00
47985;BME280;33753;52.912;-7.342;2023-01-26T04:40:17;102401.50;;;4.67;100.00
47985;BME280;33753;52.912;-7.342;2023-01-26T04:42:47;102412.41;;;4.64;100.00
47985;BME280;33753;52.912;-7.342;2023-01-26T04:45:15;102408.66;;;4.67;100.00
47985;BME280;33753;52.912;-7.342;2023-01-26T04:47:44;102414.63;;;4.56;100.00
47985;BME280;33753;52.912;-7.342;2023-01-26T04:50:15;102409.19;;;4.58;100.00
47985;BME280;33753;52.912;-7.342;2023-01-26T04:52:46;102411.78;;;4.59;100.00
47985;BME280;33753;52.912;-7.342;2023-01-26T04:55:15;102402.78;;;4.60;100.00
47985;BME280;33753;52.912;-7.342;2023-01-26T04:57:43;102401.03;;;4.59;100.00
47985;BME280;33753;52.912;-7.342;2023-01-26T05:00:11;102410.81;;;4.60;100.00
47985;BME280;33753;52.912;-7.342;2023-01-26T05:02:40;102402.78;;;4.60;100.00
47985;BME280;33753;52.912;-7.342;2023-01-26T05:05:09;102410.13;;;4.57;100.00
47985;BME280;33753;52.912;-7.342;2023-01-26T05:07:38;102411.94;;;4.56;100.00
47985;BME280;33753;52.912;-7.342;2023-01-26T05:10:08;102405.69;;;4.56;100.00
47985;BME280;33753;52.912;-7.342;2023-01-26T05:13:12;102397.75;;;4.54;100.00
47985;BME280;33753;52.912;-7.342;2023-01-26T05:16:00;102394.97;;;4.56;100.00
47985;BME280;33753;52.912;-7.342;2023-01-26T05:18:42;102395.41;;;4.48;100.00
47985;BME280;33753;52.912;-7.342;2023-01-26T05:21:23;102395.41;;;4.48;100.00
47985;BME280;33753;52.912;-7.342;2023-01-26T05:23:53;102391.97;;;4.46;100.00
47985;BME280;33753;52.912;-7.342;2023-01-26T05:26:43;102391.97;;;4.46;100.00
47985;BME280;33753;52.912;-7.342;2023-01-26T05:29:15;102403.88;;;4.40;100.00
47985;BME280;33753;52.912;-7.342;2023-01-26T05:31:44;102406.00;;;4.33;100.00
47985;BME280;33753;52.912;-7.342;2023-01-26T05:34:12;102401.41;;;4.36;100.00
47985;BME280;33753;52.912;-7.342;2023-01-26T05:36:41;102408.59;;;4.35;100.00
47985;BME280;33753;52.912;-7.342;2023-01-26T05:39:09;102409.63;;;4.32;100.00
47985;BME280;33753;52.912;-7.342;2023-01-26T05:41:37;102420.06;;;4.21;100.00
47985;BME280;33753;52.912;-7.342;2023-01-26T05:44:26;102404.78;;;4.23;100.00
47985;BME280;33753;52.912;-7.342;2023-01-26T05:47:02;102406.66;;;4.21;100.00
47985;BME280;33753;52.912;-7.342;2023-01-26T05:49:30;102401.47;;;4.18;100.00
47985;BME280;33753;52.912;-7.342;2023-01-26T05:51:59;102392.84;;;4.13;100.00
47985;BME280;33753;52.912;-7.342;2023-01-26T05:54:28;102398.88;;;4.17;100.00
47985;BME280;33753;52.912;-7.342;2023-01-26T05:56:57;102391.88;;;4.14;100.00
47985;BME280;33753;52.912;-7.342;2023-01-26T05:59:27;102394.72;;;4.11;100.00
47985;BME280;33753;52.912;-7.342;2023-01-26T06:01:56;102399.31;;;4.09;100.00
47985;BME280;33753;52.912;-7.342;2023-01-26T06:04:25;102406.44;;;4.08;100.00
47985;BME280;33753;52.912;-7.342;2023-01-26T06:06:57;102410.09;;;4.07;100.00
47985;BME280;33753;52.912;-7.342;2023-01-26T06:09:35;102411.59;;;4.13;100.00
47985;BME280;33753;52.912;-7.342;2023-01-26T06:12:12;102402.13;;;4.06;100.00
47985;BME280;33753;52.912;-7.342;2023-01-26T06:14:58;102410.78;;;4.11;100.00
47985;BME280;33753;52.912;-7.342;2023-01-26T06:17:36;102410.94;;;4.08;100.00
47985;BME280;33753;52.912;-7.342;2023-01-26T06:20:07;102401.97;;;4.09;100.00
47985;BME280;33753;52.912;-7.342;2023-01-26T06:22:37;102399.38;;;4.07;100.00
47985;BME280;33753;52.912;-7.342;2023-01-26T06:25:06;102414.56;;;4.07;100.00
47985;BME280;33753;52.912;-7.342;2023-01-26T06:27:34;102420.56;;;4.12;100.00
47985;BME280;33753;52.912;-7.342;2023-01-26T06:30:11;102411.72;;;4.10;100.00
47985;BME280;33753;52.912;-7.342;2023-01-26T06:32:40;102414.56;;;4.07;100.00
47985;BME280;33753;52.912;-7.342;2023-01-26T06:35:08;102405.97;;;4.00;100.00
47985;BME280;33753;52.912;-7.342;2023-01-26T06:37:38;102410.41;;;4.01;100.00
47985;BME280;33753;52.912;-7.342;2023-01-26T06:40:06;102406.72;;;3.86;100.00
47985;BME280;33753;52.912;-7.342;2023-01-26T06:42:36;102413.00;;;3.85;100.00
47985;BME280;33753;52.912;-7.342;2023-01-26T06:45:05;102400.97;;;3.76;100.00
47985;BME280;33753;52.912;-7.342;2023-01-26T06:47:35;102389.41;;;3.76;100.00
47985;BME280;33753;52.912;-7.342;2023-01-26T06:50:08;102389.72;;;3.70;100.00
47985;BME280;33753;52.912;-7.342;2023-01-26T06:52:36;102397.25;;;3.61;100.00
47985;BME280;33753;52.912;-7.342;2023-01-26T06:55:28;102401.06;;;3.57;100.00
47985;BME280;33753;52.912;-7.342;2023-01-26T06:58:19;102408.53;;;3.51;100.00
47985;BME280;33753;52.912;-7.342;2023-01-26T07:01:08;102418.59;;;3.45;100.00
47985;BME280;33753;52.912;-7.342;2023-01-26T07:03:37;102418.03;;;3.39;100.00
47985;BME280;33753;52.912;-7.342;2023-01-26T07:06:05;102411.88;;;3.37;100.00
47985;BME280;33753;52.912;-7.342;2023-01-26T07:08:34;102422.66;;;3.35;100.00
47985;BME280;33753;52.912;-7.342;2023-01-26T07:11:02;102420.06;;;3.34;100.00
47985;BME280;33753;52.912;-7.342;2023-01-26T07:13:33;102427.16;;;3.35;100.00
47985;BME280;33753;52.912;-7.342;2023-01-26T07:16:01;102431.53;;;3.36;100.00
47985;BME280;33753;52.912;-7.342;2023-01-26T07:18:30;102450.25;;;3.36;100.00
47985;BME280;33753;52.912;-7.342;2023-01-26T07:21:00;102445.00;;;3.34;100.00
47985;BME280;33753;52.912;-7.342;2023-01-26T07:23:28;102447.38;;;3.40;100.00
47985;BME280;33753;52.912;-7.342;2023-01-26T07:25:59;102446.41;;;3.41;100.00
47985;BME280;33753;52.912;-7.342;2023-01-26T07:28:27;102446.06;;;3.49;100.00
47985;BME280;33753;52.912;-7.342;2023-01-26T07:30:56;102451.25;;;3.52;100.00
47985;BME280;33753;52.912;-7.342;2023-01-26T07:33:24;102456.22;;;3.60;100.00
47985;BME280;33753;52.912;-7.342;2023-01-26T07:35:53;102463.06;;;3.66;100.00
47985;BME280;33753;52.912;-7.342;2023-01-26T07:38:22;102467.25;;;3.71;100.00
47985;BME280;33753;52.912;-7.342;2023-01-26T07:40:51;102467.09;;;3.74;100.00
47985;BME280;33753;52.912;-7.342;2023-01-26T07:43:19;102476.63;;;3.80;100.00
47985;BME280;33753;52.912;-7.342;2023-01-26T07:45:49;102475.69;;;3.81;100.00
47985;BME280;33753;52.912;-7.342;2023-01-26T07:48:18;102474.59;;;3.85;100.00
47985;BME280;33753;52.912;-7.342;2023-01-26T07:50:46;102485.06;;;3.90;100.00
47985;BME280;33753;52.912;-7.342;2023-01-26T07:53:15;102479.50;;;3.94;100.00
47985;BME280;33753;52.912;-7.342;2023-01-26T07:55:46;102485.53;;;3.98;100.00
47985;BME280;33753;52.912;-7.342;2023-01-26T07:58:15;102482.78;;;4.00;100.00
47985;BME280;33753;52.912;-7.342;2023-01-26T08:00:44;102469.88;;;4.08;100.00
47985;BME280;33753;52.912;-7.342;2023-01-26T08:03:13;102486.56;;;4.13;100.00
47985;BME280;33753;52.912;-7.342;2023-01-26T08:05:42;102474.91;;;4.14;100.00
47985;BME280;33753;52.912;-7.342;2023-01-26T08:08:10;102470.25;;;4.18;100.00
47985;BME280;33753;52.912;-7.342;2023-01-26T08:10:38;102469.38;;;4.17;100.00
47985;BME280;33753;52.912;-7.342;2023-01-26T08:13:08;102473.63;;;4.21;100.00
47985;BME280;33753;52.912;-7.342;2023-01-26T08:15:36;102460.06;;;4.24;100.00
47985;BME280;33753;52.912;-7.342;2023-01-26T08:18:05;102452.84;;;4.26;100.00
47985;BME280;33753;52.912;-7.342;2023-01-26T08:20:33;102457.25;;;4.27;100.00
47985;BME280;33753;52.912;-7.342;2023-01-26T08:23:01;102452.75;;;4.28;100.00
47985;BME280;33753;52.912;-7.342;2023-01-26T08:25:29;102453.59;;;4.28;100.00
47985;BME280;33753;52.912;-7.342;2023-01-26T08:27:59;102447.47;;;4.26;100.00
47985;BME280;33753;52.912;-7.342;2023-01-26T08:30:30;102441.25;;;4.26;100.00
47985;BME280;33753;52.912;-7.342;2023-01-26T08:32:58;102447.47;;;4.26;100.00
47985;BME280;33753;52.912;-7.342;2023-01-26T08:35:26;102450.31;;;4.23;100.00
47985;BME280;33753;52.912;-7.342;2023-01-26T08:37:55;102446.06;;;4.19;100.00
47985;BME280;33753;52.912;-7.342;2023-01-26T08:40:23;102455.03;;;4.18;100.00
47985;BME280;33753;52.912;-7.342;2023-01-26T08:42:51;102448.13;;;4.14;100.00
47985;BME280;33753;52.912;-7.342;2023-01-26T08:45:20;102457.81;;;4.17;100.00
47985;BME280;33753;52.912;-7.342;2023-01-26T08:47:50;102469.53;;;4.14;100.00
47985;BME280;33753;52.912;-7.342;2023-01-26T08:50:18;102465.75;;;4.18;100.00
47985;BME280;33753;52.912;-7.342;2023-01-26T08:52:46;102464.00;;;4.17;100.00
47985;BME280;33753;52.912;-7.342;2023-01-26T08:55:14;102462.31;;;4.16;100.00
47985;BME280;33753;52.912;-7.342;2023-01-26T08:57:43;102462.13;;;4.19;100.00
47985;BME280;33753;52.912;-7.342;2023-01-26T09:00:13;102476.31;;;4.21;100.00
47985;BME280;33753;52.912;-7.342;2023-01-26T09:02:42;102484.34;;;4.21;100.00
47985;BME280;33753;52.912;-7.342;2023-01-26T09:05:12;102479.94;;;4.20;100.00
47985;BME280;33753;52.912;-7.342;2023-01-26T09:07:40;102485.91;;;4.25;100.00
47985;BME280;33753;52.912;-7.342;2023-01-26T09:10:09;102479.63;;;4.26;100.00
47985;BME280;33753;52.912;-7.342;2023-01-26T09:12:38;102482.13;;;4.29;100.00
47985;BME280;33753;52.912;-7.342;2023-01-26T09:15:07;102478.19;;;4.37;100.00
47985;BME280;33753;52.912;-7.342;2023-01-26T09:17:35;102474.72;;;4.35;100.00
47985;BME280;33753;52.912;-7.342;2023-01-26T09:20:04;102480.88;;;4.37;100.00
47985;BME280;33753;52.912;-7.342;2023-01-26T09:22:34;102490.47;;;4.41;100.00
47985;BME280;33753;52.912;-7.342;2023-01-26T09:25:02;102490.63;;;4.38;100.00
47985;BME280;33753;52.912;-7.342;2023-01-26T09:27:30;102495.66;;;4.44;100.00
47985;BME280;33753;52.912;-7.342;2023-01-26T09:29:58;102490.13;;;4.47;100.00
47985;BME280;33753;52.912;-7.342;2023-01-26T09:32:27;102493.63;;;4.49;100.00
47985;BME280;33753;52.912;-7.342;2023-01-26T09:34:55;102489.91;;;4.52;100.00
47985;BME280;33753;52.912;-7.342;2023-01-26T09:37:23;102493.69;;;4.47;100.00
47985;BME280;33753;52.912;-7.342;2023-01-26T09:39:53;102499.59;;;4.54;100.00
47985;BME280;33753;52.912;-7.342;2023-01-26T09:42:30;102499.41;;;4.57;100.00
47985;BME280;33753;52.912;-7.342;2023-01-26T09:45:11;102494.69;;;4.62;100.00
47985;BME280;33753;52.912;-7.342;2023-01-26T09:47:45;102499.28;;;4.60;100.00
47985;BME280;33753;52.912;-7.342;2023-01-26T09:50:18;102501.69;;;4.65;100.00
47985;BME280;33753;52.912;-7.342;2023-01-26T09:52:49;102508.28;;;4.75;100.00
47985;BME280;33753;52.912;-7.342;2023-01-26T09:55:22;102507.25;;;4.78;100.00
47985;BME280;33753;52.912;-7.342;2023-01-26T09:57:52;102509.28;;;4.90;100.00
47985;BME280;33753;52.912;-7.342;2023-01-26T10:00:21;102502.97;;;4.91;100.00
47985;BME280;33753;52.912;-7.342;2023-01-26T10:02:59;102503.13;;;4.88;100.00
47985;BME280;33753;52.912;-7.342;2023-01-26T10:05:31;102500.91;;;4.96;100.00
47985;BME280;33753;52.912;-7.342;2023-01-26T10:08:07;102507.66;;;5.04;100.00
47985;BME280;33753;52.912;-7.342;2023-01-26T10:10:39;102509.03;;;5.11;100.00
47985;BME280;33753;52.912;-7.342;2023-01-26T10:13:09;102516.66;;;5.18;100.00
47985;BME280;33753;52.912;-7.342;2023-01-26T10:15:40;102527.91;;;5.25;100.00
47985;BME280;33753;52.912;-7.342;2023-01-26T10:18:11;102524.97;;;5.30;100.00
47985;BME280;33753;52.912;-7.342;2023-01-26T10:20:42;102534.66;;;5.32;100.00
47985;BME280;33753;52.912;-7.342;2023-01-26T10:23:13;102527.41;;;5.34;100.00
47985;BME280;33753;52.912;-7.342;2023-01-26T10:25:44;102531.03;;;5.33;100.00
47985;BME280;33753;52.912;-7.342;2023-01-26T10:28:13;102532.59;;;5.38;100.00
47985;BME280;33753;52.912;-7.342;2023-01-26T10:30:43;102535.28;;;5.38;100.00
47985;BME280;33753;52.912;-7.342;2023-01-26T10:33:13;102538.56;;;5.43;100.00
47985;BME280;33753;52.912;-7.342;2023-01-26T10:35:43;102551.22;;;5.41;100.00
47985;BME280;33753;52.912;-7.342;2023-01-26T10:38:27;102541.59;;;5.52;100.00
47985;BME280;33753;52.912;-7.342;2023-01-26T10:41:15;102542.38;;;5.54;100.00
47985;BME280;33753;52.912;-7.342;2023-01-26T10:43:49;102546.59;;;5.59;100.00
47985;BME280;33753;52.912;-7.342;2023-01-26T10:46:22;102551.13;;;5.58;100.00
47985;BME280;33753;52.912;-7.342;2023-01-26T10:48:50;102551.75;;;5.63;100.00
47985;BME280;33753;52.912;-7.342;2023-01-26T10:51:23;102553.97;;;5.71;100.00
47985;BME280;33753;52.912;-7.342;2023-01-26T10:56:35;102559.44;;;5.69;100.00
47985;BME280;33753;52.912;-7.342;2023-01-26T10:59:04;102548.31;;;5.76;100.00
47985;BME280;33753;52.912;-7.342;2023-01-26T11:01:49;102542.63;;;5.82;100.00
47985;BME280;33753;52.912;-7.342;2023-01-26T11:04:18;102547.63;;;5.88;100.00
47985;BME280;33753;52.912;-7.342;2023-01-26T11:06:46;102529.44;;;5.93;100.00
47985;BME280;33753;52.912;-7.342;2023-01-26T11:09:16;102536.50;;;5.94;100.00
47985;BME280;33753;52.912;-7.342;2023-01-26T11:11:57;102539.66;;;6.02;100.00
47985;BME280;33753;52.912;-7.342;2023-01-26T11:14:26;102536.22;;;6.00;100.00
47985;BME280;33753;52.912;-7.342;2023-01-26T11:16:59;102523.44;;;6.04;100.00
47985;BME280;33753;52.912;-7.342;2023-01-26T11:19:40;102528.19;;;6.15;100.00
47985;BME280;33753;52.912;-7.342;2023-01-26T11:22:12;102526.06;;;6.20;100.00
47985;BME280;33753;52.912;-7.342;2023-01-26T11:24:45;102528.31;;;6.28;100.00
47985;BME280;33753;52.912;-7.342;2023-01-26T11:27:21;102525.53;;;6.29;100.00
47985;BME280;33753;52.912;-7.342;2023-01-26T11:29:59;102530.03;;;6.29;100.00
47985;BME280;33753;52.912;-7.342;2023-01-26T11:32:29;102522.75;;;6.31;100.00
47985;BME280;33753;52.912;-7.342;2023-01-26T11:35:04;102517.19;;;6.34;100.00
47985;BME280;33753;52.912;-7.342;2023-01-26T11:37:39;102517.88;;;6.37;100.00
47985;BME280;33753;52.912;-7.342;2023-01-26T11:40:13;102513.88;;;6.45;100.00
47985;BME280;33753;52.912;-7.342;2023-01-26T11:42:48;102519.34;;;6.57;100.00
47985;BME280;33753;52.912;-7.342;2023-01-26T11:45:21;102517.13;;;6.64;100.00
47985;BME280;33753;52.912;-7.342;2023-01-26T11:47:56;102511.19;;;6.73;100.00
47985;BME280;33753;52.912;-7.342;2023-01-26T11:50:32;102518.47;;;6.86;100.00
47985;BME280;33753;52.912;-7.342;2023-01-26T11:53:11;102512.72;;;6.92;100.00
47985;BME280;33753;52.912;-7.342;2023-01-26T11:55:49;102498.31;;;6.93;100.00
47985;BME280;33753;52.912;-7.342;2023-01-26T11:58:26;102496.38;;;6.95;100.00
47985;BME280;33753;52.912;-7.342;2023-01-26T12:00:57;102487.56;;;6.93;100.00
47985;BME280;33753;52.912;-7.342;2023-01-26T12:03:29;102488.63;;;6.90;100.00
47985;BME280;33753;52.912;-7.342;2023-01-26T12:06:03;102487.34;;;6.96;100.00
47985;BME280;33753;52.912;-7.342;2023-01-26T12:08:33;102488.31;;;6.95;100.00
47985;BME280;33753;52.912;-7.342;2023-01-26T12:11:05;102480.03;;;6.98;100.00
47985;BME280;33753;52.912;-7.342;2023-01-26T12:16:39;102482.19;;;6.93;100.00
47985;BME280;33753;52.912;-7.342;2023-01-26T12:19:12;102477.56;;;6.95;100.00
47985;BME280;33753;52.912;-7.342;2023-01-26T12:21:43;102480.03;;;6.98;100.00
47985;BME280;33753;52.912;-7.342;2023-01-26T12:24:13;102473.81;;;6.98;100.00
47985;BME280;33753;52.912;-7.342;2023-01-26T12:27:09;102477.03;;;7.03;100.00
47985;BME280;33753;52.912;-7.342;2023-01-26T12:29:41;102470.81;;;7.02;100.00
47985;BME280;33753;52.912;-7.342;2023-01-26T12:32:14;102474.44;;;7.16;100.00
47985;BME280;33753;52.912;-7.342;2023-01-26T12:34:42;102469.81;;;7.18;100.00
47985;BME280;33753;52.912;-7.342;2023-01-26T12:37:18;102467.50;;;7.26;100.00
47985;BME280;33753;52.912;-7.342;2023-01-26T12:39:51;102466.03;;;7.35;100.00
47985;BME280;33753;52.912;-7.342;2023-01-26T12:42:24;102462.13;;;7.53;100.00
47985;BME280;33753;52.912;-7.342;2023-01-26T12:44:56;102460.50;;;7.51;100.00
47985;BME280;33753;52.912;-7.342;2023-01-26T12:47:29;102456.44;;;7.58;100.00
47985;BME280;33753;52.912;-7.342;2023-01-26T12:49:59;102458.16;;;7.59;100.00
47985;BME280;33753;52.912;-7.342;2023-01-26T12:52:31;102451.47;;;7.52;100.00
47985;BME280;33753;52.912;-7.342;2023-01-26T12:55:04;102458.69;;;7.64;100.00
47985;BME280;33753;52.912;-7.342;2023-01-26T12:57:37;102443.97;;;7.70;100.00
47985;BME280;33753;52.912;-7.342;2023-01-26T13:00:16;102435.34;;;7.65;100.00
47985;BME280;33753;52.912;-7.342;2023-01-26T13:02:47;102434.50;;;7.77;100.00
47985;BME280;33753;52.912;-7.342;2023-01-26T13:05:22;102420.59;;;7.70;100.00
47985;BME280;33753;52.912;-7.342;2023-01-26T13:07:51;102417.03;;;7.83;100.00
47985;BME280;33753;52.912;-7.342;2023-01-26T13:15:50;102396.25;;;7.72;100.00